This is the latest recevied weather packets stored in our database for station/object KI7JYE. If no packets are shown the sender has not sent any weather packets the latest 10 day(s).
| Time | Temp. | Humidity | Pressure | Rain* | Wind** | Luminosity | Snow |
|---|---|---|---|---|---|---|---|
| 1777778291 | 17.78° C | 77% | 1010.6 hPa | 0 mm | - | 2 W/m² | - |
| 1777777989 | 17.78° C | 77% | 1010.5 hPa | 0 mm | - | 3 W/m² | - |
| 1777777685 | 17.78° C | 76% | 1010.3 hPa | 0 mm | - | 5 W/m² | - |
| 1777777381 | 17.78° C | 76% | 1010.3 hPa | 0 mm | - | 6 W/m² | - |
| 1777777078 | 17.78° C | 76% | 1010.5 hPa | 0 mm | - | 9 W/m² | - |
| 1777776776 | 17.78° C | 76% | 1010.7 hPa | 0 mm | - | 12 W/m² | - |
| 1777776472 | 17.78° C | 75% | 1010.7 hPa | 0 mm | - | 16 W/m² | - |
| 1777776169 | 18.33° C | 75% | 1010.8 hPa | 0 mm | - | 21 W/m² | - |
| 1777775866 | 18.89° C | 73% | 1011 hPa | 0 mm | - | 25 W/m² | - |
| 1777775563 | 18.89° C | 73% | 1011.1 hPa | 0 mm | - | 30 W/m² | - |
| 1777775259 | 18.89° C | 74% | 1011.1 hPa | 0 mm | - | 36 W/m² | - |
| 1777774954 | 18.89° C | 73% | 1011.5 hPa | 0 mm | - | 42 W/m² | - |
| 1777774651 | 18.89° C | 73% | 1011.5 hPa | 0 mm | - | 48 W/m² | - |
| 1777774347 | 18.89° C | 73% | 1011.8 hPa | 0 mm | - | 54 W/m² | - |
| 1777774045 | 18.89° C | 73% | 1011.7 hPa | 0 mm | - | 58 W/m² | - |
| 1777773742 | 18.89° C | 73% | 1012 hPa | 0 mm | - | 62 W/m² | - |
| 1777773439 | 18.89° C | 72% | 1011.7 hPa | 0 mm | - | 66 W/m² | - |
| 1777773136 | 19.44° C | 71% | 1011.8 hPa | 0 mm | - | 70 W/m² | - |
| 1777770408 | 20° C | 69% | 1010.4 hPa | 0 mm | - | 149 W/m² | - |
| 1777768288 | 19.44° C | 70% | 1010.3 hPa | 0 mm | - | 149 W/m² | - |
| 1777767985 | 20° C | 69% | 1010.2 hPa | 0 mm | - | 141 W/m² | - |
| 1777767682 | 20° C | 68% | 1010.2 hPa | 0 mm | - | 137 W/m² | - |
| 1777767378 | 20.56° C | 68% | 1010.2 hPa | 0 mm | - | 140 W/m² | - |
| 1777767075 | 20° C | 69% | 1010.3 hPa | 0 mm | - | 145 W/m² | - |
| 1777766166 | 20° C | 67% | 1010.4 hPa | 0 mm | - | 161 W/m² | - |
* Rain latest hour (hover to see other rain measurements)
** Current wind speed in m/s (hover to see current wind gust speed)